sensor_id;sensor_type;location;lat;lon;timestamp;P1;durP1;ratioP1;P2;durP2;ratioP2
21630;SDS011;10977;46.802;11.952;2022-11-06T00:01:36;3.67;;;2.90;;
21630;SDS011;10977;46.802;11.952;2022-11-06T00:04:01;4.60;;;3.08;;
21630;SDS011;10977;46.802;11.952;2022-11-06T00:06:27;4.03;;;3.25;;
21630;SDS011;10977;46.802;11.952;2022-11-06T00:09:11;7.97;;;3.75;;
21630;SDS011;10977;46.802;11.952;2022-11-06T00:11:38;7.70;;;4.65;;
21630;SDS011;10977;46.802;11.952;2022-11-06T00:14:04;5.40;;;3.97;;
21630;SDS011;10977;46.802;11.952;2022-11-06T00:16:30;8.23;;;3.72;;
21630;SDS011;10977;46.802;11.952;2022-11-06T00:18:58;5.45;;;3.28;;
21630;SDS011;10977;46.802;11.952;2022-11-06T00:21:25;5.00;;;2.92;;
21630;SDS011;10977;46.802;11.952;2022-11-06T00:23:52;9.38;;;3.28;;
21630;SDS011;10977;46.802;11.952;2022-11-06T00:26:19;4.22;;;3.47;;
21630;SDS011;10977;46.802;11.952;2022-11-06T00:28:46;6.20;;;3.50;;
21630;SDS011;10977;46.802;11.952;2022-11-06T00:31:13;5.55;;;3.75;;
21630;SDS011;10977;46.802;11.952;2022-11-06T00:33:40;9.40;;;4.07;;
21630;SDS011;10977;46.802;11.952;2022-11-06T00:36:08;6.63;;;3.75;;
21630;SDS011;10977;46.802;11.952;2022-11-06T00:38:35;5.72;;;3.55;;
21630;SDS011;10977;46.802;11.952;2022-11-06T00:41:02;4.43;;;3.40;;
21630;SDS011;10977;46.802;11.952;2022-11-06T00:43:29;5.18;;;3.67;;
21630;SDS011;10977;46.802;11.952;2022-11-06T00:45:59;5.13;;;4.00;;
21630;SDS011;10977;46.802;11.952;2022-11-06T00:48:29;6.65;;;4.32;;
21630;SDS011;10977;46.802;11.952;2022-11-06T00:50:54;7.78;;;4.25;;
21630;SDS011;10977;46.802;11.952;2022-11-06T00:53:25;5.47;;;3.78;;
21630;SDS011;10977;46.802;11.952;2022-11-06T00:55:50;11.18;;;4.78;;
21630;SDS011;10977;46.802;11.952;2022-11-06T00:58:15;9.20;;;4.20;;
21630;SDS011;10977;46.802;11.952;2022-11-06T01:00:41;13.77;;;4.32;;
21630;SDS011;10977;46.802;11.952;2022-11-06T01:03:06;5.35;;;4.25;;
21630;SDS011;10977;46.802;11.952;2022-11-06T01:05:31;5.85;;;4.22;;
21630;SDS011;10977;46.802;11.952;2022-11-06T01:07:57;5.07;;;3.70;;
21630;SDS011;10977;46.802;11.952;2022-11-06T01:10:22;10.77;;;4.28;;
21630;SDS011;10977;46.802;11.952;2022-11-06T01:12:47;6.65;;;4.60;;
21630;SDS011;10977;46.802;11.952;2022-11-06T01:15:12;6.50;;;4.20;;
21630;SDS011;10977;46.802;11.952;2022-11-06T01:17:38;5.38;;;3.60;;
21630;SDS011;10977;46.802;11.952;2022-11-06T01:20:03;5.80;;;4.78;;
21630;SDS011;10977;46.802;11.952;2022-11-06T01:22:29;5.18;;;3.78;;
21630;SDS011;10977;46.802;11.952;2022-11-06T01:24:54;11.23;;;4.43;;
21630;SDS011;10977;46.802;11.952;2022-11-06T01:27:19;16.02;;;5.20;;
21630;SDS011;10977;46.802;11.952;2022-11-06T01:29:45;36.97;;;5.80;;
21630;SDS011;10977;46.802;11.952;2022-11-06T01:32:10;49.58;;;5.13;;
21630;SDS011;10977;46.802;11.952;2022-11-06T01:34:36;29.13;;;4.80;;
21630;SDS011;10977;46.802;11.952;2022-11-06T01:37:01;204.35;;;6.65;;
21630;SDS011;10977;46.802;11.952;2022-11-06T01:39:26;73.05;;;5.72;;
21630;SDS011;10977;46.802;11.952;2022-11-06T01:41:52;74.63;;;6.15;;
21630;SDS011;10977;46.802;11.952;2022-11-06T01:47:19;5.35;;;3.95;;
21630;SDS011;10977;46.802;11.952;2022-11-06T01:49:50;9.57;;;4.03;;
21630;SDS011;10977;46.802;11.952;2022-11-06T01:52:29;22.88;;;4.63;;
21630;SDS011;10977;46.802;11.952;2022-11-06T01:55:06;11.95;;;4.32;;
21630;SDS011;10977;46.802;11.952;2022-11-06T01:57:38;69.75;;;7.05;;
21630;SDS011;10977;46.802;11.952;2022-11-06T02:00:04;4.47;;;3.53;;
21630;SDS011;10977;46.802;11.952;2022-11-06T02:02:31;6.60;;;3.50;;
21630;SDS011;10977;46.802;11.952;2022-11-06T02:04:57;3.63;;;2.97;;
21630;SDS011;10977;46.802;11.952;2022-11-06T02:07:22;41.13;;;4.82;;
21630;SDS011;10977;46.802;11.952;2022-11-06T02:09:48;8.95;;;3.55;;
21630;SDS011;10977;46.802;11.952;2022-11-06T02:18:27;19.58;;;3.97;;
21630;SDS011;10977;46.802;11.952;2022-11-06T02:26:31;44.95;;;4.10;;
21630;SDS011;10977;46.802;11.952;2022-11-06T02:29:21;4.75;;;3.60;;
21630;SDS011;10977;46.802;11.952;2022-11-06T02:32:06;3.83;;;3.20;;
21630;SDS011;10977;46.802;11.952;2022-11-06T02:34:37;4.63;;;3.50;;
21630;SDS011;10977;46.802;11.952;2022-11-06T02:37:06;5.95;;;4.15;;
21630;SDS011;10977;46.802;11.952;2022-11-06T02:39:38;5.57;;;3.67;;
21630;SDS011;10977;46.802;11.952;2022-11-06T02:42:06;181.35;;;6.20;;
21630;SDS011;10977;46.802;11.952;2022-11-06T02:44:35;45.85;;;4.70;;
21630;SDS011;10977;46.802;11.952;2022-11-06T02:47:02;15.32;;;4.28;;
21630;SDS011;10977;46.802;11.952;2022-11-06T02:49:37;66.43;;;4.82;;
21630;SDS011;10977;46.802;11.952;2022-11-06T02:52:11;31.02;;;5.05;;
21630;SDS011;10977;46.802;11.952;2022-11-06T02:54:45;99.40;;;4.90;;
21630;SDS011;10977;46.802;11.952;2022-11-06T02:57:14;130.70;;;5.18;;
21630;SDS011;10977;46.802;11.952;2022-11-06T03:00:03;5.47;;;3.45;;
21630;SDS011;10977;46.802;11.952;2022-11-06T03:02:35;16.23;;;4.30;;
21630;SDS011;10977;46.802;11.952;2022-11-06T03:05:07;19.48;;;4.45;;
21630;SDS011;10977;46.802;11.952;2022-11-06T03:10:27;11.88;;;4.10;;
21630;SDS011;10977;46.802;11.952;2022-11-06T03:12:59;37.42;;;4.28;;
21630;SDS011;10977;46.802;11.952;2022-11-06T03:15:33;16.02;;;3.40;;
21630;SDS011;10977;46.802;11.952;2022-11-06T03:18:13;6.18;;;3.25;;
21630;SDS011;10977;46.802;11.952;2022-11-06T03:20:50;10.25;;;2.97;;
21630;SDS011;10977;46.802;11.952;2022-11-06T03:23:27;14.82;;;3.20;;
21630;SDS011;10977;46.802;11.952;2022-11-06T03:26:04;4.53;;;3.38;;
21630;SDS011;10977;46.802;11.952;2022-11-06T03:29:27;4.43;;;3.28;;
21630;SDS011;10977;46.802;11.952;2022-11-06T03:31:40;11.40;;;3.10;;
21630;SDS011;10977;46.802;11.952;2022-11-06T03:34:31;5.03;;;2.70;;
21630;SDS011;10977;46.802;11.952;2022-11-06T03:37:26;4.88;;;3.55;;
21630;SDS011;10977;46.802;11.952;2022-11-06T03:39:57;18.20;;;10.82;;
21630;SDS011;10977;46.802;11.952;2022-11-06T03:42:28;6.90;;;4.40;;
21630;SDS011;10977;46.802;11.952;2022-11-06T03:44:57;6.65;;;3.88;;
21630;SDS011;10977;46.802;11.952;2022-11-06T03:47:31;20.85;;;3.38;;
21630;SDS011;10977;46.802;11.952;2022-11-06T03:50:09;5.80;;;3.67;;
21630;SDS011;10977;46.802;11.952;2022-11-06T03:52:38;4.60;;;3.38;;
21630;SDS011;10977;46.802;11.952;2022-11-06T03:55:08;3.85;;;2.70;;
21630;SDS011;10977;46.802;11.952;2022-11-06T03:57:40;3.38;;;2.78;;
21630;SDS011;10977;46.802;11.952;2022-11-06T04:00:10;3.47;;;2.80;;
21630;SDS011;10977;46.802;11.952;2022-11-06T04:02:37;3.30;;;2.70;;
21630;SDS011;10977;46.802;11.952;2022-11-06T04:05:08;2.67;;;2.47;;
21630;SDS011;10977;46.802;11.952;2022-11-06T04:07:40;3.15;;;2.60;;
21630;SDS011;10977;46.802;11.952;2022-11-06T04:10:28;5.95;;;2.88;;
21630;SDS011;10977;46.802;11.952;2022-11-06T04:13:14;2.88;;;2.58;;
21630;SDS011;10977;46.802;11.952;2022-11-06T04:16:13;3.22;;;2.60;;
21630;SDS011;10977;46.802;11.952;2022-11-06T04:18:39;2.28;;;2.08;;
21630;SDS011;10977;46.802;11.952;2022-11-06T04:21:09;3.20;;;2.63;;
21630;SDS011;10977;46.802;11.952;2022-11-06T04:32:32;3.00;;;2.40;;
21630;SDS011;10977;46.802;11.952;2022-11-06T04:35:06;2.97;;;2.58;;
21630;SDS011;10977;46.802;11.952;2022-11-06T04:37:53;3.95;;;2.50;;
21630;SDS011;10977;46.802;11.952;2022-11-06T04:40:35;3.10;;;2.60;;
21630;SDS011;10977;46.802;11.952;2022-11-06T04:43:20;2.92;;;2.40;;
21630;SDS011;10977;46.802;11.952;2022-11-06T04:45:54;2.72;;;2.38;;
21630;SDS011;10977;46.802;11.952;2022-11-06T04:48:21;2.60;;;2.40;;
21630;SDS011;10977;46.802;11.952;2022-11-06T04:50:52;2.60;;;2.30;;
21630;SDS011;10977;46.802;11.952;2022-11-06T04:53:23;3.97;;;2.30;;
21630;SDS011;10977;46.802;11.952;2022-11-06T04:55:51;2.60;;;2.40;;
21630;SDS011;10977;46.802;11.952;2022-11-06T04:58:20;3.95;;;1.90;;
21630;SDS011;10977;46.802;11.952;2022-11-06T05:00:46;2.72;;;2.00;;
21630;SDS011;10977;46.802;11.952;2022-11-06T05:03:13;2.53;;;2.05;;
21630;SDS011;10977;46.802;11.952;2022-11-06T05:05:39;3.58;;;1.90;;
21630;SDS011;10977;46.802;11.952;2022-11-06T05:08:05;2.85;;;2.00;;
21630;SDS011;10977;46.802;11.952;2022-11-06T05:10:30;2.17;;;1.98;;
21630;SDS011;10977;46.802;11.952;2022-11-06T05:12:56;2.25;;;1.92;;
21630;SDS011;10977;46.802;11.952;2022-11-06T05:15:21;3.03;;;2.35;;
21630;SDS011;10977;46.802;11.952;2022-11-06T05:17:46;2.97;;;2.30;;
21630;SDS011;10977;46.802;11.952;2022-11-06T05:20:12;2.08;;;1.88;;
21630;SDS011;10977;46.802;11.952;2022-11-06T05:22:41;4.28;;;2.95;;
21630;SDS011;10977;46.802;11.952;2022-11-06T05:25:22;2.58;;;2.35;;
21630;SDS011;10977;46.802;11.952;2022-11-06T05:27:52;5.60;;;1.92;;
21630;SDS011;10977;46.802;11.952;2022-11-06T05:30:17;4.63;;;2.50;;
21630;SDS011;10977;46.802;11.952;2022-11-06T05:32:43;3.00;;;2.58;;
21630;SDS011;10977;46.802;11.952;2022-11-06T05:35:08;2.72;;;2.25;;
21630;SDS011;10977;46.802;11.952;2022-11-06T05:37:33;8.75;;;2.40;;
21630;SDS011;10977;46.802;11.952;2022-11-06T05:39:59;8.18;;;2.80;;
21630;SDS011;10977;46.802;11.952;2022-11-06T05:42:24;3.03;;;2.63;;
21630;SDS011;10977;46.802;11.952;2022-11-06T05:44:49;3.58;;;3.17;;
21630;SDS011;10977;46.802;11.952;2022-11-06T05:47:15;4.50;;;3.42;;
21630;SDS011;10977;46.802;11.952;2022-11-06T05:49:40;6.57;;;4.75;;
21630;SDS011;10977;46.802;11.952;2022-11-06T05:52:05;4.45;;;2.95;;
21630;SDS011;10977;46.802;11.952;2022-11-06T05:54:31;4.80;;;3.28;;
21630;SDS011;10977;46.802;11.952;2022-11-06T05:56:56;8.65;;;3.85;;
21630;SDS011;10977;46.802;11.952;2022-11-06T05:59:22;3.97;;;3.22;;
21630;SDS011;10977;46.802;11.952;2022-11-06T06:01:47;3.38;;;2.60;;
21630;SDS011;10977;46.802;11.952;2022-11-06T06:04:13;3.10;;;2.80;;
21630;SDS011;10977;46.802;11.952;2022-11-06T06:06:38;3.10;;;2.80;;
21630;SDS011;10977;46.802;11.952;2022-11-06T06:09:04;3.22;;;2.70;;
21630;SDS011;10977;46.802;11.952;2022-11-06T06:11:29;6.72;;;2.72;;
21630;SDS011;10977;46.802;11.952;2022-11-06T06:13:54;4.03;;;3.00;;
21630;SDS011;10977;46.802;11.952;2022-11-06T06:16:20;10.98;;;3.03;;
21630;SDS011;10977;46.802;11.952;2022-11-06T06:18:47;3.38;;;2.92;;
21630;SDS011;10977;46.802;11.952;2022-11-06T06:21:13;3.00;;;2.70;;
21630;SDS011;10977;46.802;11.952;2022-11-06T06:23:39;3.10;;;2.67;;
21630;SDS011;10977;46.802;11.952;2022-11-06T06:26:04;3.40;;;2.90;;
21630;SDS011;10977;46.802;11.952;2022-11-06T06:28:30;3.33;;;2.90;;
21630;SDS011;10977;46.802;11.952;2022-11-06T06:30:55;3.63;;;2.42;;
21630;SDS011;10977;46.802;11.952;2022-11-06T06:33:21;3.13;;;2.60;;
21630;SDS011;10977;46.802;11.952;2022-11-06T06:35:46;5.72;;;2.42;;
21630;SDS011;10977;46.802;11.952;2022-11-06T06:38:11;3.50;;;2.40;;
21630;SDS011;10977;46.802;11.952;2022-11-06T06:40:37;5.07;;;3.33;;
21630;SDS011;10977;46.802;11.952;2022-11-06T06:43:02;6.35;;;4.70;;
21630;SDS011;10977;46.802;11.952;2022-11-06T06:45:28;21.15;;;10.52;;
21630;SDS011;10977;46.802;11.952;2022-11-06T06:47:53;10.60;;;7.10;;
21630;SDS011;10977;46.802;11.952;2022-11-06T06:50:18;105.72;;;55.30;;
21630;SDS011;10977;46.802;11.952;2022-11-06T06:52:44;94.93;;;53.17;;
21630;SDS011;10977;46.802;11.952;2022-11-06T06:55:09;80.82;;;28.70;;
21630;SDS011;10977;46.802;11.952;2022-11-06T06:57:35;37.45;;;21.25;;
21630;SDS011;10977;46.802;11.952;2022-11-06T07:00:00;37.33;;;20.52;;
21630;SDS011;10977;46.802;11.952;2022-11-06T07:02:25;17.17;;;12.35;;
21630;SDS011;10977;46.802;11.952;2022-11-06T07:04:51;29.23;;;17.92;;
21630;SDS011;10977;46.802;11.952;2022-11-06T07:07:16;10.40;;;6.95;;
21630;SDS011;10977;46.802;11.952;2022-11-06T07:09:42;8.35;;;5.75;;
21630;SDS011;10977;46.802;11.952;2022-11-06T07:12:07;10.90;;;5.38;;
21630;SDS011;10977;46.802;11.952;2022-11-06T07:14:32;9.95;;;4.32;;
21630;SDS011;10977;46.802;11.952;2022-11-06T07:16:58;4.38;;;3.30;;
21630;SDS011;10977;46.802;11.952;2022-11-06T07:19:23;4.93;;;3.55;;
21630;SDS011;10977;46.802;11.952;2022-11-06T07:21:52;5.80;;;3.72;;
21630;SDS011;10977;46.802;11.952;2022-11-06T07:24:18;4.30;;;3.38;;
21630;SDS011;10977;46.802;11.952;2022-11-06T07:26:43;4.13;;;3.22;;
21630;SDS011;10977;46.802;11.952;2022-11-06T07:29:09;4.70;;;3.60;;
21630;SDS011;10977;46.802;11.952;2022-11-06T07:31:34;3.95;;;3.15;;
21630;SDS011;10977;46.802;11.952;2022-11-06T07:34:00;12.82;;;3.55;;
21630;SDS011;10977;46.802;11.952;2022-11-06T07:36:26;4.63;;;3.53;;
21630;SDS011;10977;46.802;11.952;2022-11-06T07:38:51;4.70;;;3.45;;
21630;SDS011;10977;46.802;11.952;2022-11-06T07:41:17;11.55;;;3.88;;
21630;SDS011;10977;46.802;11.952;2022-11-06T07:43:42;7.00;;;3.55;;
21630;SDS011;10977;46.802;11.952;2022-11-06T07:46:09;15.02;;;4.00;;
21630;SDS011;10977;46.802;11.952;2022-11-06T07:48:36;4.97;;;3.83;;
21630;SDS011;10977;46.802;11.952;2022-11-06T07:51:04;19.13;;;3.63;;
21630;SDS011;10977;46.802;11.952;2022-11-06T07:53:31;7.60;;;3.55;;
21630;SDS011;10977;46.802;11.952;2022-11-06T07:55:57;6.35;;;3.60;;
21630;SDS011;10977;46.802;11.952;2022-11-06T07:58:23;4.85;;;4.00;;
21630;SDS011;10977;46.802;11.952;2022-11-06T08:00:50;7.00;;;4.40;;
21630;SDS011;10977;46.802;11.952;2022-11-06T08:03:16;5.30;;;3.90;;
21630;SDS011;10977;46.802;11.952;2022-11-06T08:05:43;5.03;;;4.32;;
21630;SDS011;10977;46.802;11.952;2022-11-06T08:08:08;6.63;;;4.82;;
21630;SDS011;10977;46.802;11.952;2022-11-06T08:10:34;6.65;;;4.78;;
21630;SDS011;10977;46.802;11.952;2022-11-06T08:13:04;8.75;;;4.43;;
21630;SDS011;10977;46.802;11.952;2022-11-06T08:15:32;5.38;;;4.53;;
21630;SDS011;10977;46.802;11.952;2022-11-06T08:17:58;5.13;;;4.18;;
21630;SDS011;10977;46.802;11.952;2022-11-06T08:20:24;6.15;;;5.00;;
21630;SDS011;10977;46.802;11.952;2022-11-06T08:22:50;5.97;;;4.75;;
21630;SDS011;10977;46.802;11.952;2022-11-06T08:25:15;6.68;;;4.68;;
21630;SDS011;10977;46.802;11.952;2022-11-06T08:27:41;6.00;;;4.82;;
21630;SDS011;10977;46.802;11.952;2022-11-06T08:30:06;5.60;;;4.22;;
21630;SDS011;10977;46.802;11.952;2022-11-06T08:32:33;4.50;;;4.07;;
21630;SDS011;10977;46.802;11.952;2022-11-06T08:34:58;5.85;;;4.32;;
21630;SDS011;10977;46.802;11.952;2022-11-06T08:37:24;6.00;;;4.60;;
21630;SDS011;10977;46.802;11.952;2022-11-06T08:39:49;8.93;;;6.40;;
21630;SDS011;10977;46.802;11.952;2022-11-06T08:42:15;20.23;;;13.00;;
21630;SDS011;10977;46.802;11.952;2022-11-06T08:44:40;9.10;;;7.03;;
21630;SDS011;10977;46.802;11.952;2022-11-06T08:47:07;6.55;;;5.10;;
21630;SDS011;10977;46.802;11.952;2022-11-06T08:49:33;6.65;;;5.38;;
21630;SDS011;10977;46.802;11.952;2022-11-06T08:51:58;15.25;;;5.78;;
21630;SDS011;10977;46.802;11.952;2022-11-06T08:54:23;6.13;;;5.25;;
21630;SDS011;10977;46.802;11.952;2022-11-06T08:56:49;8.63;;;5.80;;
21630;SDS011;10977;46.802;11.952;2022-11-06T08:59:14;7.80;;;5.22;;
21630;SDS011;10977;46.802;11.952;2022-11-06T09:01:40;7.75;;;6.18;;
21630;SDS011;10977;46.802;11.952;2022-11-06T09:04:05;17.80;;;6.03;;
21630;SDS011;10977;46.802;11.952;2022-11-06T09:06:31;6.75;;;5.13;;
21630;SDS011;10977;46.802;11.952;2022-11-06T09:08:57;5.93;;;5.32;;
21630;SDS011;10977;46.802;11.952;2022-11-06T09:11:23;8.18;;;5.85;;
21630;SDS011;10977;46.802;11.952;2022-11-06T09:13:49;6.80;;;5.72;;
21630;SDS011;10977;46.802;11.952;2022-11-06T09:16:15;8.45;;;6.63;;
21630;SDS011;10977;46.802;11.952;2022-11-06T09:18:40;14.27;;;9.25;;
21630;SDS011;10977;46.802;11.952;2022-11-06T09:21:06;10.20;;;7.82;;
21630;SDS011;10977;46.802;11.952;2022-11-06T09:23:31;10.38;;;7.28;;
21630;SDS011;10977;46.802;11.952;2022-11-06T09:25:57;7.85;;;6.38;;
21630;SDS011;10977;46.802;11.952;2022-11-06T09:28:23;9.75;;;7.60;;
21630;SDS011;10977;46.802;11.952;2022-11-06T09:30:48;7.95;;;6.15;;
21630;SDS011;10977;46.802;11.952;2022-11-06T09:33:14;7.97;;;5.30;;
21630;SDS011;10977;46.802;11.952;2022-11-06T09:35:40;12.25;;;7.38;;
21630;SDS011;10977;46.802;11.952;2022-11-06T09:38:06;5.43;;;4.80;;
21630;SDS011;10977;46.802;11.952;2022-11-06T09:43:20;6.75;;;5.40;;
21630;SDS011;10977;46.802;11.952;2022-11-06T09:45:57;8.90;;;6.68;;
21630;SDS011;10977;46.802;11.952;2022-11-06T09:48:39;7.40;;;5.68;;
21630;SDS011;10977;46.802;11.952;2022-11-06T09:51:30;6.47;;;5.50;;
21630;SDS011;10977;46.802;11.952;2022-11-06T09:56:54;5.53;;;4.70;;
21630;SDS011;10977;46.802;11.952;2022-11-06T09:59:23;5.03;;;4.53;;
21630;SDS011;10977;46.802;11.952;2022-11-06T10:01:54;6.93;;;4.25;;
21630;SDS011;10977;46.802;11.952;2022-11-06T10:07:07;4.20;;;3.80;;
21630;SDS011;10977;46.802;11.952;2022-11-06T10:09:58;4.30;;;3.90;;
21630;SDS011;10977;46.802;11.952;2022-11-06T10:20:45;3.65;;;3.35;;
21630;SDS011;10977;46.802;11.952;2022-11-06T10:23:22;3.53;;;3.13;;
21630;SDS011;10977;46.802;11.952;2022-11-06T10:25:58;3.38;;;3.08;;
21630;SDS011;10977;46.802;11.952;2022-11-06T10:34:00;2.75;;;2.30;;
21630;SDS011;10977;46.802;11.952;2022-11-06T10:36:36;2.53;;;2.33;;
21630;SDS011;10977;46.802;11.952;2022-11-06T10:39:16;3.22;;;2.92;;
21630;SDS011;10977;46.802;11.952;2022-11-06T10:41:46;4.30;;;3.30;;
21630;SDS011;10977;46.802;11.952;2022-11-06T10:44:32;2.65;;;2.45;;
21630;SDS011;10977;46.802;11.952;2022-11-06T10:47:02;3.25;;;2.38;;
21630;SDS011;10977;46.802;11.952;2022-11-06T10:49:36;3.30;;;3.00;;
21630;SDS011;10977;46.802;11.952;2022-11-06T10:52:35;2.40;;;2.20;;
21630;SDS011;10977;46.802;11.952;2022-11-06T10:55:23;2.22;;;2.03;;
21630;SDS011;10977;46.802;11.952;2022-11-06T10:58:16;2.40;;;2.20;;
21630;SDS011;10977;46.802;11.952;2022-11-06T11:00:43;2.10;;;1.90;;
21630;SDS011;10977;46.802;11.952;2022-11-06T11:03:18;2.40;;;2.20;;
21630;SDS011;10977;46.802;11.952;2022-11-06T11:05:50;2.30;;;2.10;;
21630;SDS011;10977;46.802;11.952;2022-11-06T11:08:36;2.22;;;2.03;;
21630;SDS011;10977;46.802;11.952;2022-11-06T11:14:27;2.88;;;2.42;;
21630;SDS011;10977;46.802;11.952;2022-11-06T11:16:31;2.70;;;2.50;;
21630;SDS011;10977;46.802;11.952;2022-11-06T11:19:19;2.90;;;2.70;;
21630;SDS011;10977;46.802;11.952;2022-11-06T11:21:53;2.75;;;2.55;;
21630;SDS011;10977;46.802;11.952;2022-11-06T11:24:23;2.92;;;2.72;;
21630;SDS011;10977;46.802;11.952;2022-11-06T11:26:53;2.70;;;2.50;;
21630;SDS011;10977;46.802;11.952;2022-11-06T11:29:45;3.25;;;2.95;;
21630;SDS011;10977;46.802;11.952;2022-11-06T11:32:14;2.60;;;2.40;;
21630;SDS011;10977;46.802;11.952;2022-11-06T11:34:44;2.40;;;2.20;;
21630;SDS011;10977;46.802;11.952;2022-11-06T11:37:31;1.73;;;1.63;;
21630;SDS011;10977;46.802;11.952;2022-11-06T11:40:27;1.73;;;1.63;;
21630;SDS011;10977;46.802;11.952;2022-11-06T11:43:14;2.13;;;2.00;;
21630;SDS011;10977;46.802;11.952;2022-11-06T11:48:43;2.10;;;1.90;;
21630;SDS011;10977;46.802;11.952;2022-11-06T11:51:31;2.30;;;2.05;;
21630;SDS011;10977;46.802;11.952;2022-11-06T11:56:26;2.35;;;2.15;;
21630;SDS011;10977;46.802;11.952;2022-11-06T11:58:56;1.98;;;1.88;;
21630;SDS011;10977;46.802;11.952;2022-11-06T12:01:42;1.90;;;1.80;;
21630;SDS011;10977;46.802;11.952;2022-11-06T12:04:20;1.67;;;1.58;;
21630;SDS011;10977;46.802;11.952;2022-11-06T12:06:54;1.88;;;1.77;;
21630;SDS011;10977;46.802;11.952;2022-11-06T12:09:22;1.90;;;1.80;;
21630;SDS011;10977;46.802;11.952;2022-11-06T12:11:50;2.50;;;2.30;;
21630;SDS011;10977;46.802;11.952;2022-11-06T12:16:47;2.42;;;2.05;;
21630;SDS011;10977;46.802;11.952;2022-11-06T12:19:15;2.38;;;2.17;;
21630;SDS011;10977;46.802;11.952;2022-11-06T12:21:44;2.17;;;1.90;;
21630;SDS011;10977;46.802;11.952;2022-11-06T12:24:17;1.80;;;1.70;;
21630;SDS011;10977;46.802;11.952;2022-11-06T12:29:20;1.92;;;1.83;;
21630;SDS011;10977;46.802;11.952;2022-11-06T12:40:19;2.75;;;1.98;;
21630;SDS011;10977;46.802;11.952;2022-11-06T12:45:24;1.90;;;1.60;;
21630;SDS011;10977;46.802;11.952;2022-11-06T12:48:06;1.80;;;1.70;;
21630;SDS011;10977;46.802;11.952;2022-11-06T12:50:39;2.20;;;2.00;;
21630;SDS011;10977;46.802;11.952;2022-11-06T12:58:22;3.05;;;2.60;;
21630;SDS011;10977;46.802;11.952;2022-11-06T13:04:15;3.40;;;3.10;;
21630;SDS011;10977;46.802;11.952;2022-11-06T13:09:31;3.38;;;3.03;;
21630;SDS011;10977;46.802;11.952;2022-11-06T13:18:04;2.75;;;2.20;;
21630;SDS011;10977;46.802;11.952;2022-11-06T13:20:24;2.90;;;2.60;;
21630;SDS011;10977;46.802;11.952;2022-11-06T13:31:10;2.22;;;2.00;;
21630;SDS011;10977;46.802;11.952;2022-11-06T13:33:41;2.50;;;2.10;;
21630;SDS011;10977;46.802;11.952;2022-11-06T13:36:13;2.55;;;2.35;;
21630;SDS011;10977;46.802;11.952;2022-11-06T13:38:49;2.17;;;1.98;;
21630;SDS011;10977;46.802;11.952;2022-11-06T13:41:24;2.05;;;1.85;;
21630;SDS011;10977;46.802;11.952;2022-11-06T13:44:02;2.47;;;2.00;;
21630;SDS011;10977;46.802;11.952;2022-11-06T13:46:46;2.30;;;2.10;;
21630;SDS011;10977;46.802;11.952;2022-11-06T13:52:50;6.03;;;2.40;;
21630;SDS011;10977;46.802;11.952;2022-11-06T14:03:39;2.55;;;2.20;;
21630;SDS011;10977;46.802;11.952;2022-11-06T14:06:13;2.90;;;2.60;;
21630;SDS011;10977;46.802;11.952;2022-11-06T14:08:49;2.22;;;2.03;;
21630;SDS011;10977;46.802;11.952;2022-11-06T14:11:18;1.67;;;1.58;;
21630;SDS011;10977;46.802;11.952;2022-11-06T14:16:38;1.65;;;1.40;;
21630;SDS011;10977;46.802;11.952;2022-11-06T14:19:21;1.52;;;1.42;;
21630;SDS011;10977;46.802;11.952;2022-11-06T14:21:54;1.58;;;1.48;;
21630;SDS011;10977;46.802;11.952;2022-11-06T14:24:58;1.67;;;1.50;;
21630;SDS011;10977;46.802;11.952;2022-11-06T14:29:53;1.70;;;1.60;;
21630;SDS011;10977;46.802;11.952;2022-11-06T14:34:45;1.45;;;1.33;;
21630;SDS011;10977;46.802;11.952;2022-11-06T14:42:30;3.83;;;1.73;;
21630;SDS011;10977;46.802;11.952;2022-11-06T14:51:00;1.75;;;1.63;;
21630;SDS011;10977;46.802;11.952;2022-11-06T14:53:19;1.80;;;1.60;;
21630;SDS011;10977;46.802;11.952;2022-11-06T14:55:55;1.65;;;1.50;;
21630;SDS011;10977;46.802;11.952;2022-11-06T15:00:59;2.17;;;1.80;;
21630;SDS011;10977;46.802;11.952;2022-11-06T15:03:34;1.95;;;1.75;;
21630;SDS011;10977;46.802;11.952;2022-11-06T15:06:19;1.95;;;1.70;;
21630;SDS011;10977;46.802;11.952;2022-11-06T15:11:59;3.63;;;2.90;;
21630;SDS011;10977;46.802;11.952;2022-11-06T15:16:54;2.80;;;2.33;;
21630;SDS011;10977;46.802;11.952;2022-11-06T15:19:30;3.35;;;2.85;;
21630;SDS011;10977;46.802;11.952;2022-11-06T15:24:45;3.08;;;2.75;;
21630;SDS011;10977;46.802;11.952;2022-11-06T15:27:19;4.55;;;3.53;;
21630;SDS011;10977;46.802;11.952;2022-11-06T15:29:53;5.93;;;4.22;;
21630;SDS011;10977;46.802;11.952;2022-11-06T15:32:25;4.55;;;3.88;;
21630;SDS011;10977;46.802;11.952;2022-11-06T15:37:40;4.15;;;3.00;;
21630;SDS011;10977;46.802;11.952;2022-11-06T15:40:25;5.10;;;4.10;;
21630;SDS011;10977;46.802;11.952;2022-11-06T15:42:53;4.00;;;3.42;;
21630;SDS011;10977;46.802;11.952;2022-11-06T15:45:23;4.40;;;3.50;;
21630;SDS011;10977;46.802;11.952;2022-11-06T15:47:57;7.72;;;5.55;;
21630;SDS011;10977;46.802;11.952;2022-11-06T15:50:26;6.68;;;5.00;;
21630;SDS011;10977;46.802;11.952;2022-11-06T15:52:53;8.05;;;5.70;;
21630;SDS011;10977;46.802;11.952;2022-11-06T15:55:27;6.93;;;5.30;;
21630;SDS011;10977;46.802;11.952;2022-11-06T15:58:09;8.55;;;5.97;;
21630;SDS011;10977;46.802;11.952;2022-11-06T16:00:48;30.73;;;22.27;;
21630;SDS011;10977;46.802;11.952;2022-11-06T16:03:14;25.33;;;19.65;;
21630;SDS011;10977;46.802;11.952;2022-11-06T16:05:42;17.08;;;13.52;;
21630;SDS011;10977;46.802;11.952;2022-11-06T16:08:12;13.75;;;10.10;;
21630;SDS011;10977;46.802;11.952;2022-11-06T16:10:39;11.15;;;8.10;;
21630;SDS011;10977;46.802;11.952;2022-11-06T16:13:06;11.45;;;8.82;;
21630;SDS011;10977;46.802;11.952;2022-11-06T16:20:47;11.63;;;6.60;;
21630;SDS011;10977;46.802;11.952;2022-11-06T16:23:37;8.82;;;6.80;;
21630;SDS011;10977;46.802;11.952;2022-11-06T16:26:08;8.77;;;5.85;;
21630;SDS011;10977;46.802;11.952;2022-11-06T16:28:40;8.25;;;6.72;;
21630;SDS011;10977;46.802;11.952;2022-11-06T16:31:09;10.35;;;6.78;;
21630;SDS011;10977;46.802;11.952;2022-11-06T16:33:40;8.07;;;6.22;;
21630;SDS011;10977;46.802;11.952;2022-11-06T16:36:16;8.02;;;5.10;;
21630;SDS011;10977;46.802;11.952;2022-11-06T16:38:42;7.53;;;5.63;;
21630;SDS011;10977;46.802;11.952;2022-11-06T16:41:09;7.13;;;5.07;;
21630;SDS011;10977;46.802;11.952;2022-11-06T16:43:36;8.90;;;6.30;;
21630;SDS011;10977;46.802;11.952;2022-11-06T16:46:02;10.77;;;7.85;;
21630;SDS011;10977;46.802;11.952;2022-11-06T16:48:38;46.75;;;31.60;;
21630;SDS011;10977;46.802;11.952;2022-11-06T16:53:55;35.90;;;25.95;;
21630;SDS011;10977;46.802;11.952;2022-11-06T16:56:21;19.65;;;15.40;;
21630;SDS011;10977;46.802;11.952;2022-11-06T16:59:22;18.02;;;14.15;;
21630;SDS011;10977;46.802;11.952;2022-11-06T17:01:46;14.73;;;11.85;;
21630;SDS011;10977;46.802;11.952;2022-11-06T17:04:19;15.52;;;12.27;;
21630;SDS011;10977;46.802;11.952;2022-11-06T17:06:46;19.13;;;13.48;;
21630;SDS011;10977;46.802;11.952;2022-11-06T17:11:50;15.05;;;10.80;;
21630;SDS011;10977;46.802;11.952;2022-11-06T17:14:19;41.88;;;21.38;;
21630;SDS011;10977;46.802;11.952;2022-11-06T17:16:49;32.13;;;19.67;;
21630;SDS011;10977;46.802;11.952;2022-11-06T17:19:17;27.80;;;15.73;;
21630;SDS011;10977;46.802;11.952;2022-11-06T17:21:43;42.60;;;26.63;;
21630;SDS011;10977;46.802;11.952;2022-11-06T17:24:09;42.08;;;24.23;;